sensor_id;sensor_type;location;lat;lon;timestamp;pressure;altitude;pressure_sealevel;temperature;humidity
66090;BME280;53113;45.602;11.904;2022-09-03T00:00:59;101281.93;;;19.24;61.09
66090;BME280;53113;45.602;11.904;2022-09-03T00:03:46;101284.20;;;19.26;61.00
66090;BME280;53113;45.602;11.904;2022-09-03T00:06:17;101280.27;;;19.28;61.04
66090;BME280;53113;45.602;11.904;2022-09-03T00:08:53;101283.10;;;19.28;61.26
66090;BME280;53113;45.602;11.904;2022-09-03T00:11:30;101286.60;;;19.27;61.27
66090;BME280;53113;45.602;11.904;2022-09-03T00:14:22;101278.04;;;19.27;61.33
66090;BME280;53113;45.602;11.904;2022-09-03T00:16:54;101270.86;;;19.25;61.50
66090;BME280;53113;45.602;11.904;2022-09-03T00:19:25;101271.05;;;19.23;61.58
66090;BME280;53113;45.602;11.904;2022-09-03T00:22:00;101275.04;;;19.21;61.70
66090;BME280;53113;45.602;11.904;2022-09-03T00:24:32;101270.12;;;19.19;61.71
66090;BME280;53113;45.602;11.904;2022-09-03T00:27:04;101269.38;;;19.19;61.79
66090;BME280;53113;45.602;11.904;2022-09-03T00:29:37;101266.33;;;19.21;61.76
66090;BME280;53113;45.602;11.904;2022-09-03T00:32:44;101263.94;;;19.21;61.55
66090;BME280;53113;45.602;11.904;2022-09-03T00:36:05;101266.65;;;19.21;61.49
66090;BME280;53113;45.602;11.904;2022-09-03T00:38:05;101257.98;;;19.16;61.44
66090;BME280;53113;45.602;11.904;2022-09-03T00:40:59;101263.54;;;19.15;61.42
66090;BME280;53113;45.602;11.904;2022-09-03T00:43:33;101267.60;;;19.10;61.49
66090;BME280;53113;45.602;11.904;2022-09-03T00:46:22;101274.85;;;19.06;61.62
66090;BME280;53113;45.602;11.904;2022-09-03T00:51:57;101282.41;;;18.95;61.88
66090;BME280;53113;45.602;11.904;2022-09-03T01:00:16;101297.49;;;18.89;62.12
66090;BME280;53113;45.602;11.904;2022-09-03T01:03:10;101299.66;;;18.89;62.13
66090;BME280;53113;45.602;11.904;2022-09-03T01:13:49;101311.63;;;18.79;62.53
66090;BME280;53113;45.602;11.904;2022-09-03T01:16:40;101313.33;;;18.77;62.42
66090;BME280;53113;45.602;11.904;2022-09-03T01:25:05;101316.80;;;18.67;62.41
66090;BME280;53113;45.602;11.904;2022-09-03T01:28:09;101318.96;;;18.65;62.48
66090;BME280;53113;45.602;11.904;2022-09-03T01:30:47;101322.21;;;18.66;62.28
66090;BME280;53113;45.602;11.904;2022-09-03T01:34:00;101324.44;;;18.67;62.17
66090;BME280;53113;45.602;11.904;2022-09-03T01:39:12;101323.17;;;18.64;62.24
66090;BME280;53113;45.602;11.904;2022-09-03T01:53:01;101322.98;;;18.48;62.51
66090;BME280;53113;45.602;11.904;2022-09-03T01:58:41;101327.65;;;18.43;62.47
66090;BME280;53113;45.602;11.904;2022-09-03T02:01:16;101329.81;;;18.44;62.48
66090;BME280;53113;45.602;11.904;2022-09-03T02:03:47;101330.08;;;18.45;62.61
66090;BME280;53113;45.602;11.904;2022-09-03T02:06:14;101328.33;;;18.45;62.63
66090;BME280;53113;45.602;11.904;2022-09-03T02:08:41;101326.80;;;18.44;62.72
66090;BME280;53113;45.602;11.904;2022-09-03T02:11:08;101322.11;;;18.41;62.76
66090;BME280;53113;45.602;11.904;2022-09-03T02:13:37;101322.25;;;18.39;62.84
66090;BME280;53113;45.602;11.904;2022-09-03T02:16:14;101319.49;;;18.35;62.96
66090;BME280;53113;45.602;11.904;2022-09-03T02:18:45;101317.09;;;18.30;63.02
66090;BME280;53113;45.602;11.904;2022-09-03T02:21:19;101319.40;;;18.26;62.99
66090;BME280;53113;45.602;11.904;2022-09-03T02:23:46;101314.32;;;18.21;63.14
66090;BME280;53113;45.602;11.904;2022-09-03T02:26:15;101315.44;;;18.19;63.17
66090;BME280;53113;45.602;11.904;2022-09-03T02:28:43;101316.22;;;18.20;63.03
66090;BME280;53113;45.602;11.904;2022-09-03T02:31:10;101311.35;;;18.21;63.04
66090;BME280;53113;45.602;11.904;2022-09-03T02:33:40;101304.55;;;18.19;63.04
66090;BME280;53113;45.602;11.904;2022-09-03T02:36:10;101300.63;;;18.17;63.08
66090;BME280;53113;45.602;11.904;2022-09-03T02:38:39;101296.48;;;18.14;63.07
66090;BME280;53113;45.602;11.904;2022-09-03T02:41:06;101294.54;;;18.10;63.09
66090;BME280;53113;45.602;11.904;2022-09-03T02:46:20;101292.77;;;18.00;63.25
66090;BME280;53113;45.602;11.904;2022-09-03T02:48:47;101291.39;;;17.96;63.28
66090;BME280;53113;45.602;11.904;2022-09-03T02:51:14;101288.56;;;17.92;63.31
66090;BME280;53113;45.602;11.904;2022-09-03T02:53:40;101291.44;;;17.88;63.21
66090;BME280;53113;45.602;11.904;2022-09-03T02:56:07;101282.95;;;17.83;63.23
66090;BME280;53113;45.602;11.904;2022-09-03T02:58:32;101279.80;;;17.83;63.30
66090;BME280;53113;45.602;11.904;2022-09-03T03:00:58;101279.08;;;17.83;63.34
66090;BME280;53113;45.602;11.904;2022-09-03T03:03:25;101279.16;;;17.84;63.42
66090;BME280;53113;45.602;11.904;2022-09-03T03:05:53;101281.21;;;17.83;63.45
66090;BME280;53113;45.602;11.904;2022-09-03T03:08:23;101286.52;;;17.82;63.47
66090;BME280;53113;45.602;11.904;2022-09-03T03:10:57;101286.02;;;17.79;63.51
66090;BME280;53113;45.602;11.904;2022-09-03T03:13:27;101283.60;;;17.78;63.55
66090;BME280;53113;45.602;11.904;2022-09-03T03:16:02;101278.45;;;17.76;63.61
66090;BME280;53113;45.602;11.904;2022-09-03T03:18:32;101278.47;;;17.72;63.64
66090;BME280;53113;45.602;11.904;2022-09-03T03:21:08;101278.84;;;17.70;63.65
66090;BME280;53113;45.602;11.904;2022-09-03T03:23:35;101278.29;;;17.67;63.71
66090;BME280;53113;45.602;11.904;2022-09-03T03:26:03;101280.33;;;17.66;63.91
66090;BME280;53113;45.602;11.904;2022-09-03T03:28:33;101284.25;;;17.68;63.94
66090;BME280;53113;45.602;11.904;2022-09-03T03:31:08;101286.44;;;17.69;63.90
66090;BME280;53113;45.602;11.904;2022-09-03T03:33:36;101285.98;;;17.69;63.86
66090;BME280;53113;45.602;11.904;2022-09-03T03:36:07;101287.13;;;17.68;63.88
66090;BME280;53113;45.602;11.904;2022-09-03T03:38:34;101287.40;;;17.65;63.89
66090;BME280;53113;45.602;11.904;2022-09-03T03:41:12;101290.33;;;17.62;63.84
66090;BME280;53113;45.602;11.904;2022-09-03T03:43:39;101284.42;;;17.59;63.92
66090;BME280;53113;45.602;11.904;2022-09-03T03:46:05;101285.20;;;17.56;63.85
66090;BME280;53113;45.602;11.904;2022-09-03T03:48:31;101286.83;;;17.52;64.02
66090;BME280;53113;45.602;11.904;2022-09-03T03:51:02;101291.92;;;17.52;64.08
66090;BME280;53113;45.602;11.904;2022-09-03T03:53:33;101292.77;;;17.52;64.06
66090;BME280;53113;45.602;11.904;2022-09-03T03:56:02;101289.08;;;17.52;64.02
66090;BME280;53113;45.602;11.904;2022-09-03T03:58:28;101285.82;;;17.52;64.03
66090;BME280;53113;45.602;11.904;2022-09-03T04:01:10;101280.71;;;17.51;64.16
66090;BME280;53113;45.602;11.904;2022-09-03T04:03:37;101279.27;;;17.47;64.29
66090;BME280;53113;45.602;11.904;2022-09-03T04:06:03;101285.42;;;17.45;64.31
66090;BME280;53113;45.602;11.904;2022-09-03T04:08:33;101283.98;;;17.41;64.45
66090;BME280;53113;45.602;11.904;2022-09-03T04:11:00;101284.35;;;17.37;64.40
66090;BME280;53113;45.602;11.904;2022-09-03T04:13:31;101283.20;;;17.36;64.49
66090;BME280;53113;45.602;11.904;2022-09-03T04:16:08;101286.27;;;17.37;64.45
66090;BME280;53113;45.602;11.904;2022-09-03T04:18:36;101293.06;;;17.39;64.48
66090;BME280;53113;45.602;11.904;2022-09-03T04:21:10;101294.60;;;17.38;64.58
66090;BME280;53113;45.602;11.904;2022-09-03T04:23:41;101291.55;;;17.36;64.74
66090;BME280;53113;45.602;11.904;2022-09-03T04:26:11;101294.73;;;17.35;64.77
66090;BME280;53113;45.602;11.904;2022-09-03T04:28:38;101299.48;;;17.34;64.83
66090;BME280;53113;45.602;11.904;2022-09-03T04:31:07;101301.27;;;17.32;64.97
66090;BME280;53113;45.602;11.904;2022-09-03T04:33:35;101300.56;;;17.30;64.96
66090;BME280;53113;45.602;11.904;2022-09-03T04:38:33;101300.80;;;17.35;64.94
66090;BME280;53113;45.602;11.904;2022-09-03T04:40:59;101296.76;;;17.38;64.89
66090;BME280;53113;45.602;11.904;2022-09-03T04:43:26;101296.17;;;17.40;64.89
66090;BME280;53113;45.602;11.904;2022-09-03T04:45:57;101296.80;;;17.42;64.92
66090;BME280;53113;45.602;11.904;2022-09-03T04:48:23;101298.98;;;17.41;65.01
66090;BME280;53113;45.602;11.904;2022-09-03T04:50:49;101303.45;;;17.41;65.10
66090;BME280;53113;45.602;11.904;2022-09-03T04:53:15;101298.39;;;17.40;65.36
66090;BME280;53113;45.602;11.904;2022-09-03T04:55:41;101302.74;;;17.39;65.55
66090;BME280;53113;45.602;11.904;2022-09-03T04:58:06;101310.48;;;17.39;65.73
66090;BME280;53113;45.602;11.904;2022-09-03T05:00:34;101308.05;;;17.38;65.99
66090;BME280;53113;45.602;11.904;2022-09-03T05:03:00;101303.56;;;17.38;66.14
66090;BME280;53113;45.602;11.904;2022-09-03T05:05:27;101304.69;;;17.42;66.33
66090;BME280;53113;45.602;11.904;2022-09-03T05:07:57;101301.45;;;17.48;66.35
66090;BME280;53113;45.602;11.904;2022-09-03T05:10:23;101294.46;;;17.53;66.40
66090;BME280;53113;45.602;11.904;2022-09-03T05:13:00;101292.13;;;17.59;66.52
66090;BME280;53113;45.602;11.904;2022-09-03T05:15:28;101289.92;;;17.63;66.51
66090;BME280;53113;45.602;11.904;2022-09-03T05:18:02;101284.48;;;17.68;66.54
66090;BME280;53113;45.602;11.904;2022-09-03T05:20:28;101288.45;;;17.73;66.61
66090;BME280;53113;45.602;11.904;2022-09-03T05:22:56;101284.45;;;17.77;66.63
66090;BME280;53113;45.602;11.904;2022-09-03T05:25:26;101292.04;;;17.82;66.64
66090;BME280;53113;45.602;11.904;2022-09-03T05:27:52;101294.35;;;17.88;66.61
66090;BME280;53113;45.602;11.904;2022-09-03T05:30:19;101298.27;;;17.95;66.61
66090;BME280;53113;45.602;11.904;2022-09-03T05:32:48;101295.99;;;18.06;66.70
66090;BME280;53113;45.602;11.904;2022-09-03T05:35:14;101302.41;;;18.17;66.69
66090;BME280;53113;45.602;11.904;2022-09-03T05:37:40;101305.13;;;18.28;66.65
66090;BME280;53113;45.602;11.904;2022-09-03T05:40:07;101305.10;;;18.37;66.56
66090;BME280;53113;45.602;11.904;2022-09-03T05:42:38;101299.31;;;18.44;66.51
66090;BME280;53113;45.602;11.904;2022-09-03T05:45:08;101299.48;;;18.52;66.38
66090;BME280;53113;45.602;11.904;2022-09-03T05:47:39;101302.31;;;18.59;66.29
66090;BME280;53113;45.602;11.904;2022-09-03T05:50:08;101305.06;;;18.66;66.06
66090;BME280;53113;45.602;11.904;2022-09-03T05:52:36;101310.16;;;18.73;65.95
66090;BME280;53113;45.602;11.904;2022-09-03T05:55:03;101312.01;;;18.79;65.80
66090;BME280;53113;45.602;11.904;2022-09-03T05:57:29;101313.16;;;18.86;65.66
66090;BME280;53113;45.602;11.904;2022-09-03T05:59:56;101314.19;;;18.93;65.46
66090;BME280;53113;45.602;11.904;2022-09-03T06:02:22;101311.14;;;19.00;65.45
66090;BME280;53113;45.602;11.904;2022-09-03T06:04:49;101315.27;;;19.14;65.30
66090;BME280;53113;45.602;11.904;2022-09-03T06:07:16;101308.30;;;19.29;65.23
66090;BME280;53113;45.602;11.904;2022-09-03T06:09:42;101307.86;;;19.46;65.17
66090;BME280;53113;45.602;11.904;2022-09-03T06:12:07;101307.79;;;19.62;65.11
66090;BME280;53113;45.602;11.904;2022-09-03T06:14:33;101304.45;;;19.79;64.92
66090;BME280;53113;45.602;11.904;2022-09-03T06:16:59;101302.47;;;19.94;64.41
66090;BME280;53113;45.602;11.904;2022-09-03T06:19:25;101301.23;;;20.09;64.11
66090;BME280;53113;45.602;11.904;2022-09-03T06:21:52;101301.47;;;20.22;63.75
66090;BME280;53113;45.602;11.904;2022-09-03T06:24:21;101298.11;;;20.31;63.27
66090;BME280;53113;45.602;11.904;2022-09-03T06:26:52;101297.40;;;20.42;62.99
66090;BME280;53113;45.602;11.904;2022-09-03T06:29:17;101294.91;;;20.52;62.44
66090;BME280;53113;45.602;11.904;2022-09-03T06:31:45;101296.11;;;20.61;62.19
66090;BME280;53113;45.602;11.904;2022-09-03T06:34:13;101296.91;;;20.70;61.98
66090;BME280;53113;45.602;11.904;2022-09-03T06:36:40;101289.61;;;20.79;61.95
66090;BME280;53113;45.602;11.904;2022-09-03T06:39:06;101287.20;;;20.92;61.66
66090;BME280;53113;45.602;11.904;2022-09-03T06:41:32;101277.77;;;21.04;61.54
66090;BME280;53113;45.602;11.904;2022-09-03T06:44:03;101270.92;;;21.18;61.07
66090;BME280;53113;45.602;11.904;2022-09-03T06:46:32;101268.17;;;21.34;60.69
66090;BME280;53113;45.602;11.904;2022-09-03T06:48:58;101269.48;;;21.55;60.75
66090;BME280;53113;45.602;11.904;2022-09-03T06:51:25;101267.83;;;21.77;60.39
66090;BME280;53113;45.602;11.904;2022-09-03T06:53:54;101271.48;;;22.02;59.98
66090;BME280;53113;45.602;11.904;2022-09-03T06:56:23;101273.55;;;22.26;59.38
66090;BME280;53113;45.602;11.904;2022-09-03T06:58:52;101279.12;;;22.51;58.73
66090;BME280;53113;45.602;11.904;2022-09-03T07:01:20;101278.17;;;22.73;58.15
66090;BME280;53113;45.602;11.904;2022-09-03T07:03:51;101274.34;;;22.91;57.39
66090;BME280;53113;45.602;11.904;2022-09-03T07:06:22;101276.16;;;23.12;56.89
66090;BME280;53113;45.602;11.904;2022-09-03T07:08:49;101279.55;;;23.32;56.41
66090;BME280;53113;45.602;11.904;2022-09-03T07:11:18;101283.88;;;23.51;55.51
66090;BME280;53113;45.602;11.904;2022-09-03T07:13:46;101292.06;;;23.70;54.88
66090;BME280;53113;45.602;11.904;2022-09-03T07:16:19;101290.91;;;23.87;54.52
66090;BME280;53113;45.602;11.904;2022-09-03T07:18:45;101292.88;;;24.02;54.06
66090;BME280;53113;45.602;11.904;2022-09-03T07:21:14;101288.71;;;24.18;53.76
66090;BME280;53113;45.602;11.904;2022-09-03T07:23:42;101289.11;;;24.35;53.17
66090;BME280;53113;45.602;11.904;2022-09-03T07:26:12;101292.75;;;24.53;52.96
66090;BME280;53113;45.602;11.904;2022-09-03T07:28:45;101299.35;;;24.73;52.22
66090;BME280;53113;45.602;11.904;2022-09-03T07:31:18;101306.14;;;24.95;52.12
66090;BME280;53113;45.602;11.904;2022-09-03T07:33:46;101307.79;;;25.20;51.56
66090;BME280;53113;45.602;11.904;2022-09-03T07:36:14;101306.28;;;25.43;50.98
66090;BME280;53113;45.602;11.904;2022-09-03T07:38:41;101305.19;;;25.65;50.06
66090;BME280;53113;45.602;11.904;2022-09-03T07:41:10;101307.08;;;25.85;49.55
66090;BME280;53113;45.602;11.904;2022-09-03T07:43:39;101306.91;;;26.03;49.04
66090;BME280;53113;45.602;11.904;2022-09-03T07:46:11;101310.15;;;26.21;48.62
66090;BME280;53113;45.602;11.904;2022-09-03T07:48:39;101311.27;;;26.36;47.93
66090;BME280;53113;45.602;11.904;2022-09-03T07:51:06;101311.64;;;26.49;47.62
66090;BME280;53113;45.602;11.904;2022-09-03T07:53:33;101313.60;;;26.62;47.25
66090;BME280;53113;45.602;11.904;2022-09-03T07:56:08;101312.06;;;26.73;47.13
66090;BME280;53113;45.602;11.904;2022-09-03T07:58:36;101311.23;;;26.85;46.79
66090;BME280;53113;45.602;11.904;2022-09-03T08:01:09;101317.14;;;26.93;46.43
66090;BME280;53113;45.602;11.904;2022-09-03T08:03:36;101324.01;;;27.01;46.21
66090;BME280;53113;45.602;11.904;2022-09-03T08:06:04;101326.22;;;27.10;46.21
66090;BME280;53113;45.602;11.904;2022-09-03T08:08:32;101331.60;;;27.19;45.82
66090;BME280;53113;45.602;11.904;2022-09-03T08:13:43;101337.79;;;27.39;45.35
66090;BME280;53113;45.602;11.904;2022-09-03T08:16:16;101339.52;;;27.51;45.23
66090;BME280;53113;45.602;11.904;2022-09-03T08:18:43;101343.77;;;27.63;45.02
66090;BME280;53113;45.602;11.904;2022-09-03T08:21:14;101344.15;;;27.74;44.58
66090;BME280;53113;45.602;11.904;2022-09-03T08:23:43;101347.88;;;27.87;44.13
66090;BME280;53113;45.602;11.904;2022-09-03T08:26:10;101352.11;;;27.99;44.29
66090;BME280;53113;45.602;11.904;2022-09-03T08:28:37;101357.11;;;28.15;44.01
66090;BME280;53113;45.602;11.904;2022-09-03T08:31:18;101358.39;;;28.29;43.79
66090;BME280;53113;45.602;11.904;2022-09-03T08:33:47;101358.45;;;28.42;43.07
66090;BME280;53113;45.602;11.904;2022-09-03T08:36:21;101362.08;;;28.50;43.07
66090;BME280;53113;45.602;11.904;2022-09-03T08:38:48;101368.91;;;28.61;42.98
66090;BME280;53113;45.602;11.904;2022-09-03T08:54:46;101361.89;;;29.34;41.27
66090;BME280;53113;45.602;11.904;2022-09-03T08:57:13;101366.75;;;29.42;41.25
66090;BME280;53113;45.602;11.904;2022-09-03T08:59:41;101365.98;;;29.50;41.32
66090;BME280;53113;45.602;11.904;2022-09-03T09:02:21;101361.90;;;29.59;41.03
66090;BME280;53113;45.602;11.904;2022-09-03T09:05:10;101360.10;;;29.75;41.05
66090;BME280;53113;45.602;11.904;2022-09-03T09:07:46;101352.49;;;29.98;41.35
66090;BME280;53113;45.602;11.904;2022-09-03T09:13:33;101354.19;;;30.54;40.51
66090;BME280;53113;45.602;11.904;2022-09-03T09:21:34;101344.85;;;31.45;38.60
66090;BME280;53113;45.602;11.904;2022-09-03T09:24:21;101345.36;;;31.69;37.87
66090;BME280;53113;45.602;11.904;2022-09-03T09:26:48;101347.46;;;31.88;37.49
66090;BME280;53113;45.602;11.904;2022-09-03T09:29:16;101345.73;;;32.01;37.08
66090;BME280;53113;45.602;11.904;2022-09-03T09:31:42;101346.05;;;32.12;36.90
66090;BME280;53113;45.602;11.904;2022-09-03T09:34:10;101347.59;;;32.21;36.39
66090;BME280;53113;45.602;11.904;2022-09-03T09:36:43;101351.63;;;32.27;35.98
66090;BME280;53113;45.602;11.904;2022-09-03T09:39:12;101356.03;;;32.36;35.94
66090;BME280;53113;45.602;11.904;2022-09-03T09:41:41;101361.06;;;32.45;35.58
66090;BME280;53113;45.602;11.904;2022-09-03T09:44:18;101363.09;;;32.52;35.22
66090;BME280;53113;45.602;11.904;2022-09-03T09:46:45;101360.56;;;32.57;34.90
66090;BME280;53113;45.602;11.904;2022-09-03T09:49:30;101361.26;;;32.62;34.64
66090;BME280;53113;45.602;11.904;2022-09-03T09:52:15;101356.39;;;32.64;34.61
66090;BME280;53113;45.602;11.904;2022-09-03T09:54:43;101359.02;;;32.64;34.48
66090;BME280;53113;45.602;11.904;2022-09-03T09:57:16;101366.08;;;32.62;34.34
66090;BME280;53113;45.602;11.904;2022-09-03T09:59:43;101365.38;;;32.60;34.02
66090;BME280;53113;45.602;11.904;2022-09-03T10:02:23;101365.21;;;32.60;33.63
66090;BME280;53113;45.602;11.904;2022-09-03T10:05:10;101365.32;;;32.58;33.72
66090;BME280;53113;45.602;11.904;2022-09-03T10:07:37;101367.29;;;32.59;33.42
66090;BME280;53113;45.602;11.904;2022-09-03T10:10:22;101368.15;;;32.61;33.03
66090;BME280;53113;45.602;11.904;2022-09-03T10:15:47;101365.45;;;32.70;32.86
66090;BME280;53113;45.602;11.904;2022-09-03T10:21:17;101368.35;;;32.92;32.96
66090;BME280;53113;45.602;11.904;2022-09-03T10:26:48;101364.51;;;33.26;32.80
66090;BME280;53113;45.602;11.904;2022-09-03T10:29:22;101364.20;;;33.40;32.59
66090;BME280;53113;45.602;11.904;2022-09-03T10:32:32;101361.95;;;33.54;32.43
66090;BME280;53113;45.602;11.904;2022-09-03T10:35:18;101357.62;;;33.68;31.81
66090;BME280;53113;45.602;11.904;2022-09-03T10:40:35;101364.50;;;33.83;31.65
66090;BME280;53113;45.602;11.904;2022-09-03T10:43:26;101363.70;;;33.91;31.51
66090;BME280;53113;45.602;11.904;2022-09-03T10:46:27;101363.42;;;34.04;31.59
66090;BME280;53113;45.602;11.904;2022-09-03T10:51:27;101349.30;;;34.36;30.86
66090;BME280;53113;45.602;11.904;2022-09-03T10:57:12;101348.25;;;34.65;30.24
66090;BME280;53113;45.602;11.904;2022-09-03T11:00:05;101345.44;;;34.84;30.09
66090;BME280;53113;45.602;11.904;2022-09-03T11:02:57;101340.96;;;35.03;29.72
66090;BME280;53113;45.602;11.904;2022-09-03T11:05:34;101339.08;;;35.25;29.21
66090;BME280;53113;45.602;11.904;2022-09-03T11:08:09;101339.41;;;35.43;28.61
66090;BME280;53113;45.602;11.904;2022-09-03T11:10:41;101334.54;;;35.61;28.70
66090;BME280;53113;45.602;11.904;2022-09-03T11:13:23;101334.45;;;35.77;28.76
66090;BME280;53113;45.602;11.904;2022-09-03T11:15:59;101335.00;;;35.97;28.29
66090;BME280;53113;45.602;11.904;2022-09-03T11:21:02;101329.98;;;36.34;27.83
66090;BME280;53113;45.602;11.904;2022-09-03T11:23:34;101329.77;;;36.49;27.46
66090;BME280;53113;45.602;11.904;2022-09-03T11:26:06;101329.52;;;36.64;27.38
66090;BME280;53113;45.602;11.904;2022-09-03T11:28:57;101333.13;;;36.82;27.07
66090;BME280;53113;45.602;11.904;2022-09-03T11:34:14;101335.30;;;37.19;26.22
66090;BME280;53113;45.602;11.904;2022-09-03T11:36:41;101331.61;;;37.34;26.06
66090;BME280;53113;45.602;11.904;2022-09-03T11:39:19;101328.18;;;37.47;25.90
66090;BME280;53113;45.602;11.904;2022-09-03T11:42:11;101322.90;;;37.60;25.40
66090;BME280;53113;45.602;11.904;2022-09-03T11:44:50;101316.25;;;37.72;25.11
66090;BME280;53113;45.602;11.904;2022-09-03T11:47:37;101310.93;;;37.82;25.06
66090;BME280;53113;45.602;11.904;2022-09-03T11:50:27;101312.13;;;37.95;24.89
66090;BME280;53113;45.602;11.904;2022-09-03T11:58:30;101314.24;;;38.24;24.84
66090;BME280;53113;45.602;11.904;2022-09-03T12:01:08;101316.48;;;38.30;24.49
66090;BME280;53113;45.602;11.904;2022-09-03T12:03:47;101318.37;;;38.36;24.37
66090;BME280;53113;45.602;11.904;2022-09-03T12:06:37;101318.15;;;38.47;24.46
66090;BME280;53113;45.602;11.904;2022-09-03T12:10:02;101317.07;;;38.58;24.00
66090;BME280;53113;45.602;11.904;2022-09-03T12:15:03;101316.74;;;38.69;24.12
66090;BME280;53113;45.602;11.904;2022-09-03T12:17:53;101318.27;;;38.77;23.76
66090;BME280;53113;45.602;11.904;2022-09-03T12:20:41;101316.75;;;38.85;23.59
66090;BME280;53113;45.602;11.904;2022-09-03T12:23:12;101315.58;;;38.94;23.40
66090;BME280;53113;45.602;11.904;2022-09-03T12:25:44;101311.61;;;39.07;23.52
66090;BME280;53113;45.602;11.904;2022-09-03T12:28:19;101312.88;;;39.24;23.70
66090;BME280;53113;45.602;11.904;2022-09-03T12:30:51;101306.20;;;39.33;23.53
66090;BME280;53113;45.602;11.904;2022-09-03T12:33:22;101302.99;;;39.36;23.38
66090;BME280;53113;45.602;11.904;2022-09-03T12:35:59;101298.98;;;39.35;23.35
66090;BME280;53113;45.602;11.904;2022-09-03T12:38:25;101297.00;;;39.33;23.33
66090;BME280;53113;45.602;11.904;2022-09-03T12:40:52;101302.30;;;39.30;23.41
66090;BME280;53113;45.602;11.904;2022-09-03T12:43:19;101296.89;;;39.23;23.38
66090;BME280;53113;45.602;11.904;2022-09-03T12:45:47;101301.15;;;39.10;23.23
66090;BME280;53113;45.602;11.904;2022-09-03T12:48:17;101300.63;;;38.91;23.10
66090;BME280;53113;45.602;11.904;2022-09-03T12:50:45;101293.19;;;38.73;23.23
66090;BME280;53113;45.602;11.904;2022-09-03T12:53:20;101288.36;;;38.65;23.33
66090;BME280;53113;45.602;11.904;2022-09-03T12:55:58;101285.64;;;38.66;23.53
66090;BME280;53113;45.602;11.904;2022-09-03T12:58:35;101277.67;;;38.75;23.38
66090;BME280;53113;45.602;11.904;2022-09-03T13:01:10;101273.59;;;38.90;23.26
66090;BME280;53113;45.602;11.904;2022-09-03T13:03:54;101267.04;;;39.01;23.30
66090;BME280;53113;45.602;11.904;2022-09-03T13:09:19;101264.02;;;39.03;23.52
66090;BME280;53113;45.602;11.904;2022-09-03T13:11:47;101264.55;;;38.89;23.52
66090;BME280;53113;45.602;11.904;2022-09-03T13:14:13;101265.45;;;38.75;23.48
66090;BME280;53113;45.602;11.904;2022-09-03T13:30:22;101239.09;;;38.12;23.82
66090;BME280;53113;45.602;11.904;2022-09-03T13:33:03;101238.91;;;38.07;24.14
66090;BME280;53113;45.602;11.904;2022-09-03T13:35:43;101235.56;;;38.02;24.35
66090;BME280;53113;45.602;11.904;2022-09-03T13:40:49;101229.41;;;38.02;24.30
66090;BME280;53113;45.602;11.904;2022-09-03T13:43:36;101225.23;;;38.03;24.50
66090;BME280;53113;45.602;11.904;2022-09-03T13:48:38;101215.91;;;38.12;24.57
66090;BME280;53113;45.602;11.904;2022-09-03T13:51:48;101221.83;;;38.15;24.80
66090;BME280;53113;45.602;11.904;2022-09-03T13:54:54;101219.80;;;38.12;24.67
66090;BME280;53113;45.602;11.904;2022-09-03T13:57:27;101221.42;;;38.02;24.66
66090;BME280;53113;45.602;11.904;2022-09-03T14:02:54;101211.63;;;37.80;24.72
66090;BME280;53113;45.602;11.904;2022-09-03T14:08:11;101208.95;;;37.40;24.90
66090;BME280;53113;45.602;11.904;2022-09-03T14:11:01;101203.88;;;37.15;25.30
66090;BME280;53113;45.602;11.904;2022-09-03T14:19:45;101198.13;;;36.73;26.82
66090;BME280;53113;45.602;11.904;2022-09-03T14:24:59;101186.20;;;36.65;27.24
66090;BME280;53113;45.602;11.904;2022-09-03T14:27:31;101189.90;;;36.66;27.58
66090;BME280;53113;45.602;11.904;2022-09-03T14:29:59;101182.42;;;36.66;27.77
66090;BME280;53113;45.602;11.904;2022-09-03T14:37:54;101186.13;;;36.49;28.69
66090;BME280;53113;45.602;11.904;2022-09-03T14:40:44;101190.73;;;36.38;28.48
66090;BME280;53113;45.602;11.904;2022-09-03T14:45:54;101197.89;;;36.23;28.72
66090;BME280;53113;45.602;11.904;2022-09-03T14:48:32;101203.36;;;36.12;28.83
66090;BME280;53113;45.602;11.904;2022-09-03T15:18:09;101210.83;;;33.91;31.25
66090;BME280;53113;45.602;11.904;2022-09-03T15:20:48;101204.11;;;33.69;31.22
66090;BME280;53113;45.602;11.904;2022-09-03T15:23:52;101211.52;;;33.50;31.41
66090;BME280;53113;45.602;11.904;2022-09-03T15:26:34;101207.02;;;33.24;31.87
66090;BME280;53113;45.602;11.904;2022-09-03T15:29:27;101210.75;;;33.03;32.10
66090;BME280;53113;45.602;11.904;2022-09-03T15:37:33;101211.11;;;32.38;33.17
66090;BME280;53113;45.602;11.904;2022-09-03T15:42:36;101209.09;;;32.15;34.14
66090;BME280;53113;45.602;11.904;2022-09-03T15:45:28;101205.15;;;32.09;34.48
66090;BME280;53113;45.602;11.904;2022-09-03T15:54:10;101198.93;;;31.92;34.52
66090;BME280;53113;45.602;11.904;2022-09-03T15:56:42;101201.46;;;31.77;34.74
66090;BME280;53113;45.602;11.904;2022-09-03T15:59:35;101205.51;;;31.64;34.84
66090;BME280;53113;45.602;11.904;2022-09-03T16:02:08;101202.73;;;31.52;35.05
66090;BME280;53113;45.602;11.904;2022-09-03T16:04:55;101204.23;;;31.44;35.29
66090;BME280;53113;45.602;11.904;2022-09-03T16:16:00;101213.92;;;31.23;36.11
66090;BME280;53113;45.602;11.904;2022-09-03T16:18:32;101213.63;;;31.22;36.17
66090;BME280;53113;45.602;11.904;2022-09-03T16:24:04;101213.96;;;31.07;36.06
66090;BME280;53113;45.602;11.904;2022-09-03T16:29:15;101211.95;;;30.78;36.30
66090;BME280;53113;45.602;11.904;2022-09-03T16:35:02;101214.45;;;30.44;36.70